createdAt,value
2023-02-01T00:06:01.769Z,15.90
2023-02-01T00:11:02.317Z,15.80
2023-02-01T00:21:04.080Z,16.50
2023-02-01T00:23:34.502Z,16.20
2023-02-01T00:35:59.711Z,16.40
2023-02-01T00:38:29.245Z,16.40
2023-02-01T00:41:03.469Z,16.70
2023-02-01T00:43:33.079Z,16.20
2023-02-01T00:51:01.456Z,16.10
2023-02-01T00:58:29.067Z,15.90
2023-02-01T01:01:04.703Z,15.20
2023-02-01T01:03:35.293Z,15.80
2023-02-01T01:06:05.461Z,15.20
2023-02-01T01:08:35.265Z,15.70
2023-02-01T01:11:07.978Z,15.90
2023-02-01T01:26:02.233Z,16.70
2023-02-01T01:43:23.520Z,15.60
2023-02-01T01:45:52.502Z,16.10
2023-02-01T01:48:28.051Z,16.00
2023-02-01T01:51:02.780Z,16.30
2023-02-01T01:53:34.818Z,15.80
2023-02-01T01:58:35.656Z,15.50
2023-02-01T02:03:36.640Z,15.60
2023-02-01T02:06:08.824Z,15.80
2023-02-01T02:13:37.965Z,15.90
2023-02-01T02:16:34.339Z,15.90
2023-02-01T02:19:43.397Z,15.80
2023-02-01T02:22:47.008Z,15.40
2023-02-01T02:25:43.365Z,16.00
2023-02-01T02:28:25.700Z,15.50
2023-02-01T02:31:26.001Z,15.60
2023-02-01T02:34:03.382Z,15.50
2023-02-01T02:36:41.895Z,16.20
2023-02-01T02:39:18.724Z,15.90
2023-02-01T02:42:14.007Z,15.80
2023-02-01T02:45:06.687Z,16.80
2023-02-01T02:47:41.147Z,15.90
2023-02-01T02:50:36.811Z,15.70
2023-02-01T02:53:30.270Z,16.00
2023-02-01T02:56:16.726Z,15.80
2023-02-01T02:59:03.609Z,15.80
2023-02-01T03:01:51.618Z,15.70
2023-02-01T03:09:23.280Z,15.50
2023-02-01T03:12:14.343Z,16.00
2023-02-01T03:14:46.038Z,15.90
2023-02-01T03:17:17.733Z,15.70
2023-02-01T03:19:51.213Z,16.00
2023-02-01T03:22:25.023Z,16.60
2023-02-01T03:24:56.049Z,16.00
2023-02-01T03:29:58.375Z,15.70
2023-02-01T03:34:55.595Z,15.60
2023-02-01T03:37:28.152Z,15.80
2023-02-01T03:40:01.657Z,15.80
2023-02-01T03:42:34.360Z,15.90
2023-02-01T03:45:08.681Z,16.00
2023-02-01T03:47:42.206Z,15.90
2023-02-01T03:50:13.369Z,15.50
2023-02-01T03:52:46.847Z,15.80
2023-02-01T03:55:17.443Z,15.70
2023-02-01T03:57:52.774Z,15.80
2023-02-01T04:00:24.583Z,15.80
2023-02-01T04:02:54.081Z,15.80
2023-02-01T04:05:22.602Z,15.60
2023-02-01T04:07:52.215Z,15.40
2023-02-01T04:10:20.457Z,15.80
2023-02-01T04:12:48.623Z,16.10
2023-02-01T04:25:12.333Z,15.90
2023-02-01T04:30:12.751Z,15.80
2023-02-01T04:35:10.271Z,16.00
2023-02-01T04:40:08.095Z,16.00
2023-02-01T04:42:37.611Z,16.40
2023-02-01T04:45:06.559Z,15.70
2023-02-01T04:59:58.972Z,16.10
2023-02-01T05:02:27.109Z,15.60
2023-02-01T05:15:10.358Z,16.30
2023-02-01T05:20:10.588Z,15.40
2023-02-01T05:25:08.504Z,15.80
2023-02-01T05:30:06.003Z,16.00
2023-02-01T05:32:35.753Z,16.80
2023-02-01T05:49:55.664Z,16.50
2023-02-01T06:07:17.012Z,16.40
2023-02-01T06:24:39.619Z,17.10
2023-02-01T06:41:59.941Z,16.50
2023-02-01T07:11:44.329Z,16.40
2023-02-01T07:14:12.894Z,16.90
2023-02-01T07:16:42.383Z,17.40
2023-02-01T07:19:10.501Z,17.00
2023-02-01T07:24:07.656Z,16.80
2023-02-01T07:51:23.999Z,17.10
2023-02-01T07:56:23.924Z,17.70
2023-02-01T07:58:52.851Z,17.50
2023-02-01T08:01:21.808Z,16.70
2023-02-01T08:03:50.911Z,17.50
2023-02-01T08:11:19.257Z,17.10
2023-02-01T08:16:17.642Z,17.30
2023-02-01T08:18:46.646Z,17.60
2023-02-01T08:21:16.015Z,17.40
2023-02-01T08:23:44.519Z,17.10
2023-02-01T08:26:16.470Z,18.00
2023-02-01T08:28:47.095Z,17.50
2023-02-01T08:31:18.276Z,17.80
2023-02-01T08:33:51.099Z,17.60
2023-02-01T08:38:48.494Z,18.10
2023-02-01T08:41:19.536Z,18.20
2023-02-01T08:43:48.916Z,18.00
2023-02-01T08:46:17.850Z,18.10
2023-02-01T08:48:48.061Z,17.60
2023-02-01T08:51:18.987Z,17.50
2023-02-01T08:56:18.651Z,18.10
2023-02-01T09:01:17.909Z,18.20
2023-02-01T09:06:16.774Z,17.80
2023-02-01T09:11:16.489Z,18.00
2023-02-01T09:13:46.358Z,18.40
2023-02-01T09:23:53.291Z,18.40
2023-02-01T09:29:00.153Z,18.30
2023-02-01T09:31:28.511Z,17.90
2023-02-01T09:41:32.451Z,18.40
2023-02-01T09:44:14.103Z,18.30
2023-02-01T09:49:16.133Z,18.40
2023-02-01T09:51:47.727Z,18.50
2023-02-01T09:56:50.642Z,18.30
2023-02-01T09:59:32.829Z,18.00
2023-02-01T10:07:18.217Z,18.20
2023-02-01T10:10:00.300Z,18.50
2023-02-01T10:12:55.453Z,18.40
2023-02-01T10:15:54.100Z,18.60
2023-02-01T10:18:37.085Z,18.40
2023-02-01T10:21:12.839Z,18.60
2023-02-01T10:24:03.556Z,18.60
2023-02-01T10:26:42.129Z,18.70
2023-02-01T10:29:20.671Z,18.80
2023-02-01T10:31:50.300Z,18.80
2023-02-01T10:34:23.180Z,18.60
2023-02-01T10:36:57.695Z,18.80
2023-02-01T10:39:26.121Z,18.90
2023-02-01T10:41:54.607Z,19.00
2023-02-01T10:44:27.150Z,18.80
2023-02-01T10:46:56.812Z,18.80
2023-02-01T10:49:31.336Z,18.90
2023-02-01T10:52:06.583Z,19.00
2023-02-01T10:54:36.960Z,18.90
2023-02-01T10:59:37.208Z,18.80
2023-02-01T11:02:20.173Z,18.90
2023-02-01T11:07:21.448Z,18.90
2023-02-01T11:09:55.540Z,18.90
2023-02-01T11:12:29.207Z,18.90
2023-02-01T11:15:02.902Z,18.90
2023-02-01T11:17:37.159Z,18.80
2023-02-01T11:20:11.253Z,18.60
2023-02-01T11:27:53.163Z,18.50
2023-02-01T11:30:36.323Z,18.50
2023-02-01T11:33:07.451Z,18.70
2023-02-01T11:35:39.278Z,18.70
2023-02-01T11:38:15.983Z,18.60
2023-02-01T11:41:33.691Z,18.80
2023-02-01T11:44:03.655Z,18.80
2023-02-01T11:46:33.248Z,18.90
2023-02-01T11:49:22.207Z,18.80
2023-02-01T11:52:00.984Z,18.60
2023-02-01T11:54:52.751Z,18.70
2023-02-01T11:57:36.621Z,18.80
2023-02-01T12:00:28.824Z,18.70
2023-02-01T12:03:26.244Z,18.30
2023-02-01T12:06:06.622Z,18.90
2023-02-01T12:08:51.333Z,18.90
2023-02-01T12:11:32.205Z,18.70
2023-02-01T12:14:23.309Z,18.80
2023-02-01T12:17:07.578Z,18.90
2023-02-01T12:19:56.998Z,18.80
2023-02-01T12:22:40.406Z,18.40
2023-02-01T12:25:33.244Z,18.80
2023-02-01T12:28:28.309Z,18.70
2023-02-01T12:31:11.135Z,19.00
2023-02-01T12:33:52.640Z,18.80
2023-02-01T12:36:28.019Z,18.30
2023-02-01T12:39:09.872Z,18.90
2023-02-01T12:41:49.576Z,18.70
2023-02-01T12:44:28.103Z,18.70
2023-02-01T12:47:00.329Z,18.50
2023-02-01T12:49:37.716Z,19.10
2023-02-01T12:52:09.072Z,18.50
2023-02-01T12:54:44.106Z,18.60
2023-02-01T12:57:17.205Z,18.50
2023-02-01T12:59:49.712Z,18.70
2023-02-01T13:02:24.939Z,18.60
2023-02-01T13:05:04.171Z,18.50
2023-02-01T13:07:37.562Z,18.80
2023-02-01T13:10:15.524Z,18.20
2023-02-01T13:12:53.189Z,18.60
2023-02-01T13:15:27.003Z,18.50
2023-02-01T13:17:59.872Z,18.70
2023-02-01T13:20:33.389Z,18.70
2023-02-01T13:23:06.763Z,18.60
2023-02-01T13:25:42.107Z,18.70
2023-02-01T13:28:15.987Z,18.70
2023-02-01T13:31:00.311Z,18.50
2023-02-01T13:34:03.972Z,18.50
2023-02-01T13:36:52.035Z,18.80
2023-02-01T13:39:56.032Z,18.80
2023-02-01T13:42:28.913Z,18.70
2023-02-01T13:45:01.920Z,18.80
2023-02-01T13:47:33.223Z,19.00
2023-02-01T13:50:05.639Z,18.80
2023-02-01T13:52:40.163Z,18.70
2023-02-01T13:55:33.062Z,18.70
2023-02-01T13:58:20.749Z,18.70
2023-02-01T14:00:49.635Z,18.70
2023-02-01T14:03:23.230Z,18.40
2023-02-01T14:06:03.855Z,18.60
2023-02-01T14:08:41.814Z,18.70
2023-02-01T14:11:33.975Z,18.60
2023-02-01T14:14:43.618Z,18.60
2023-02-01T14:17:42.074Z,18.60
2023-02-01T14:20:56.846Z,18.50
2023-02-01T14:23:33.981Z,18.50
2023-02-01T14:26:18.853Z,18.60
2023-02-01T14:28:55.967Z,18.70
2023-02-01T14:31:55.653Z,18.70
2023-02-01T14:34:37.097Z,18.50
2023-02-01T14:37:08.658Z,18.30
2023-02-01T14:39:41.015Z,18.50
2023-02-01T14:42:24.523Z,18.60
2023-02-01T14:44:58.789Z,18.70
2023-02-01T14:47:38.071Z,18.70
2023-02-01T14:50:26.912Z,18.40
2023-02-01T14:53:06.589Z,18.60
2023-02-01T14:55:39.840Z,18.50
2023-02-01T14:58:17.102Z,18.70
2023-02-01T15:00:52.408Z,19.00
2023-02-01T15:03:47.074Z,18.50
2023-02-01T15:06:34.089Z,19.00
2023-02-01T15:09:06.804Z,18.80
2023-02-01T15:19:16.673Z,18.80
2023-02-01T15:21:47.307Z,18.60
2023-02-01T15:24:17.028Z,18.70
2023-02-01T15:29:14.848Z,18.90
2023-02-01T15:31:45.585Z,18.80
2023-02-01T15:34:15.611Z,18.80
2023-02-01T15:37:00.332Z,18.50
2023-02-01T15:42:03.981Z,18.80
2023-02-01T15:44:35.686Z,18.70
2023-02-01T15:47:12.496Z,18.70
2023-02-01T15:49:45.413Z,18.60
2023-02-01T15:52:23.206Z,18.60
2023-02-01T15:54:54.332Z,18.80
2023-02-01T15:57:31.369Z,18.50
2023-02-01T16:02:35.291Z,18.60
2023-02-01T16:05:06.082Z,18.50
2023-02-01T16:07:35.963Z,18.40
2023-02-01T16:10:25.348Z,18.30
2023-02-01T16:12:58.701Z,18.50
2023-02-01T16:20:24.943Z,18.30
2023-02-01T16:30:23.991Z,18.10
2023-02-01T16:35:26.435Z,18.10
2023-02-01T16:42:56.152Z,17.90
2023-02-01T16:47:56.809Z,18.30
2023-02-01T16:50:28.641Z,18.20
2023-02-01T17:07:54.585Z,18.30
2023-02-01T17:10:33.278Z,18.10
2023-02-01T17:15:36.823Z,18.10
2023-02-01T17:20:34.357Z,18.30
2023-02-01T17:23:03.871Z,18.20
2023-02-01T17:25:33.097Z,18.40
2023-02-01T17:38:13.190Z,17.90
2023-02-01T17:43:14.513Z,17.70
2023-02-01T17:45:51.483Z,18.10
2023-02-01T17:48:21.067Z,17.50
2023-02-01T17:50:52.531Z,18.10
2023-02-01T17:53:24.615Z,18.20
2023-02-01T17:55:53.675Z,18.10
2023-02-01T18:00:51.767Z,18.20
2023-02-01T18:03:25.497Z,17.80
2023-02-01T18:05:54.678Z,18.20
2023-02-01T18:08:26.116Z,18.00
2023-02-01T18:10:55.486Z,18.20
2023-02-01T18:13:24.059Z,18.30
2023-02-01T18:20:50.446Z,17.90
2023-02-01T18:23:20.984Z,18.20
2023-02-01T18:25:51.486Z,18.40
2023-02-01T18:30:51.619Z,18.10
2023-02-01T18:33:22.104Z,18.20
2023-02-01T18:40:52.499Z,18.00
2023-02-01T18:45:49.757Z,18.30
2023-02-01T18:48:22.163Z,18.10
2023-02-01T18:55:56.832Z,18.10
2023-02-01T18:58:26.498Z,18.00
2023-02-01T19:00:55.969Z,17.90
2023-02-01T19:03:26.730Z,18.20
2023-02-01T19:05:56.452Z,18.10
2023-02-01T19:13:28.418Z,18.20
2023-02-01T19:30:50.511Z,18.10
2023-02-01T19:48:13.412Z,18.40
2023-02-01T19:50:41.671Z,18.20
2023-02-01T20:05:34.100Z,18.10
2023-02-01T20:22:57.667Z,18.00
2023-02-01T20:40:21.444Z,18.30
2023-02-01T20:47:50.530Z,18.20
2023-02-01T20:57:45.315Z,18.20
2023-02-01T21:00:15.610Z,18.20
2023-02-01T21:10:10.149Z,18.10
2023-02-01T21:15:09.513Z,18.50
2023-02-01T21:20:09.680Z,18.10
2023-02-01T21:25:07.571Z,17.80
2023-02-01T21:32:36.119Z,18.00
2023-02-01T21:49:57.427Z,17.00
2023-02-01T22:07:27.134Z,17.60
2023-02-01T22:24:46.953Z,17.00
2023-02-01T22:29:44.161Z,16.20
2023-02-01T22:42:10.160Z,16.40
2023-02-01T22:59:33.016Z,16.40
2023-02-01T23:11:56.278Z,16.40
2023-02-01T23:16:54.111Z,16.30
2023-02-01T23:29:19.600Z,16.80
2023-02-01T23:34:17.586Z,16.80
2023-02-01T23:49:09.995Z,16.50
2023-02-01T23:51:39.511Z,16.30
2023-02-01T23:56:38.313Z,17.00
2023-02-01T23:59:06.961Z,16.90
